sensor_id;sensor_type;location;lat;lon;timestamp;pressure;altitude;pressure_sealevel;temperature;humidity
74794;BME280;63320;50.768;6.724;2023-03-01T00:01:16;101472.97;;;0.46;60.63
74794;BME280;63320;50.768;6.724;2023-03-01T00:03:42;101478.59;;;0.83;59.71
74794;BME280;63320;50.768;6.724;2023-03-01T00:06:08;101481.97;;;0.14;60.90
74794;BME280;63320;50.768;6.724;2023-03-01T00:08:34;101478.06;;;0.43;60.16
74794;BME280;63320;50.768;6.724;2023-03-01T00:11:03;101479.53;;;0.23;61.20
74794;BME280;63320;50.768;6.724;2023-03-01T00:13:28;101484.47;;;0.06;60.93
74794;BME280;63320;50.768;6.724;2023-03-01T00:15:54;101489.66;;;0.08;61.25
74794;BME280;63320;50.768;6.724;2023-03-01T00:18:19;101485.56;;;0.25;60.68
74794;BME280;63320;50.768;6.724;2023-03-01T00:20:49;101487.69;;;0.54;60.42
74794;BME280;63320;50.768;6.724;2023-03-01T00:23:15;101491.66;;;0.27;60.57
74794;BME280;63320;50.768;6.724;2023-03-01T00:25:41;101482.13;;;0.24;60.91
74794;BME280;63320;50.768;6.724;2023-03-01T00:28:08;101491.94;;;-0.11;62.07
74794;BME280;63320;50.768;6.724;2023-03-01T00:30:33;101487.13;;;-0.41;62.91
74794;BME280;63320;50.768;6.724;2023-03-01T00:32:58;101496.00;;;-0.27;62.79
74794;BME280;63320;50.768;6.724;2023-03-01T00:35:24;101498.56;;;-0.27;63.41
74794;BME280;63320;50.768;6.724;2023-03-01T00:37:49;101496.59;;;-0.43;63.37
74794;BME280;63320;50.768;6.724;2023-03-01T00:40:14;101497.88;;;-0.16;62.22
74794;BME280;63320;50.768;6.724;2023-03-01T00:42:40;101501.69;;;-0.46;63.13
74794;BME280;63320;50.768;6.724;2023-03-01T00:45:08;101491.41;;;-0.44;63.35
74794;BME280;63320;50.768;6.724;2023-03-01T00:47:33;101495.88;;;-0.34;62.88
74794;BME280;63320;50.768;6.724;2023-03-01T00:49:58;101489.25;;;-0.18;62.78
74794;BME280;63320;50.768;6.724;2023-03-01T00:52:24;101487.34;;;-0.30;62.51
74794;BME280;63320;50.768;6.724;2023-03-01T00:54:52;101480.78;;;-0.10;61.79
74794;BME280;63320;50.768;6.724;2023-03-01T00:57:17;101479.75;;;-0.19;61.73
74794;BME280;63320;50.768;6.724;2023-03-01T00:59:42;101480.84;;;-0.57;63.15
74794;BME280;63320;50.768;6.724;2023-03-01T01:02:09;101487.69;;;-0.60;63.13
74794;BME280;63320;50.768;6.724;2023-03-01T01:04:34;101486.84;;;-0.58;63.22
74794;BME280;63320;50.768;6.724;2023-03-01T01:07:00;101481.69;;;-0.58;63.08
74794;BME280;63320;50.768;6.724;2023-03-01T01:09:25;101480.91;;;-0.52;63.23
74794;BME280;63320;50.768;6.724;2023-03-01T01:11:51;101481.19;;;-0.35;63.81
74794;BME280;63320;50.768;6.724;2023-03-01T01:14:16;101475.06;;;-0.42;62.90
74794;BME280;63320;50.768;6.724;2023-03-01T01:16:42;101467.91;;;-0.57;63.58
74794;BME280;63320;50.768;6.724;2023-03-01T01:19:10;101462.91;;;-0.47;62.87
74794;BME280;63320;50.768;6.724;2023-03-01T01:21:35;101464.66;;;-0.46;63.56
74794;BME280;63320;50.768;6.724;2023-03-01T01:24:02;101463.16;;;-0.32;62.73
74794;BME280;63320;50.768;6.724;2023-03-01T01:26:30;101461.44;;;-0.33;63.38
74794;BME280;63320;50.768;6.724;2023-03-01T01:28:55;101458.69;;;-0.42;62.96
74794;BME280;63320;50.768;6.724;2023-03-01T01:31:21;101460.94;;;-0.62;63.77
74794;BME280;63320;50.768;6.724;2023-03-01T01:33:47;101456.59;;;-0.65;63.42
74794;BME280;63320;50.768;6.724;2023-03-01T01:36:14;101452.06;;;-0.76;64.03
74794;BME280;63320;50.768;6.724;2023-03-01T01:38:39;101442.69;;;-0.73;63.87
74794;BME280;63320;50.768;6.724;2023-03-01T01:41:05;101440.06;;;-0.23;62.25
74794;BME280;63320;50.768;6.724;2023-03-01T01:43:34;101437.69;;;-0.64;63.27
74794;BME280;63320;50.768;6.724;2023-03-01T01:46:01;101436.66;;;-0.73;63.85
74794;BME280;63320;50.768;6.724;2023-03-01T01:48:34;101438.72;;;-0.53;63.04
74794;BME280;63320;50.768;6.724;2023-03-01T01:51:03;101431.50;;;-0.70;63.73
74794;BME280;63320;50.768;6.724;2023-03-01T01:53:30;101424.91;;;-1.03;64.58
74794;BME280;63320;50.768;6.724;2023-03-01T01:55:58;101435.25;;;-1.01;65.24
74794;BME280;63320;50.768;6.724;2023-03-01T01:58:29;101422.50;;;-0.95;64.77
74794;BME280;63320;50.768;6.724;2023-03-01T02:00:55;101421.75;;;-0.87;64.37
74794;BME280;63320;50.768;6.724;2023-03-01T02:03:23;101421.56;;;-0.97;64.20
74794;BME280;63320;50.768;6.724;2023-03-01T02:05:53;101421.59;;;-0.96;64.12
74794;BME280;63320;50.768;6.724;2023-03-01T02:08:21;101422.59;;;-0.89;65.11
74794;BME280;63320;50.768;6.724;2023-03-01T02:10:50;101418.78;;;-1.10;64.91
74794;BME280;63320;50.768;6.724;2023-03-01T02:13:16;101418.22;;;-0.93;64.73
74794;BME280;63320;50.768;6.724;2023-03-01T02:15:42;101415.81;;;-0.84;64.10
74794;BME280;63320;50.768;6.724;2023-03-01T02:18:09;101414.09;;;-0.82;64.07
74794;BME280;63320;50.768;6.724;2023-03-01T02:20:39;101410.41;;;-0.96;63.79
74794;BME280;63320;50.768;6.724;2023-03-01T02:23:08;101410.59;;;-0.86;64.77
74794;BME280;63320;50.768;6.724;2023-03-01T02:25:39;101407.13;;;-0.88;63.71
74794;BME280;63320;50.768;6.724;2023-03-01T02:30:38;101408.16;;;-0.76;63.80
74794;BME280;63320;50.768;6.724;2023-03-01T02:33:04;101412.56;;;-0.71;63.92
74794;BME280;63320;50.768;6.724;2023-03-01T02:35:32;101410.56;;;-0.87;65.05
74794;BME280;63320;50.768;6.724;2023-03-01T02:37:59;101410.63;;;-0.84;64.01
74794;BME280;63320;50.768;6.724;2023-03-01T02:40:27;101402.91;;;-0.84;63.04
74794;BME280;63320;50.768;6.724;2023-03-01T02:42:56;101400.47;;;-1.23;64.74
74794;BME280;63320;50.768;6.724;2023-03-01T02:45:22;101398.44;;;-1.38;65.16
74794;BME280;63320;50.768;6.724;2023-03-01T02:47:49;101398.84;;;-1.17;64.90
74794;BME280;63320;50.768;6.724;2023-03-01T02:50:22;101394.69;;;-1.10;64.24
74794;BME280;63320;50.768;6.724;2023-03-01T02:52:56;101392.03;;;-1.15;64.22
74794;BME280;63320;50.768;6.724;2023-03-01T02:55:22;101398.84;;;-1.17;64.85
74794;BME280;63320;50.768;6.724;2023-03-01T02:57:48;101397.84;;;-1.25;65.06
74794;BME280;63320;50.768;6.724;2023-03-01T03:00:17;101402.44;;;-1.09;64.48
74794;BME280;63320;50.768;6.724;2023-03-01T03:02:43;101392.63;;;-1.28;65.34
74794;BME280;63320;50.768;6.724;2023-03-01T03:05:11;101395.66;;;-1.49;65.78
74794;BME280;63320;50.768;6.724;2023-03-01T03:07:39;101392.56;;;-1.31;65.20
74794;BME280;63320;50.768;6.724;2023-03-01T03:10:07;101395.75;;;-1.44;65.55
74794;BME280;63320;50.768;6.724;2023-03-01T03:12:32;101386.34;;;-1.41;65.49
74794;BME280;63320;50.768;6.724;2023-03-01T03:14:57;101386.22;;;-1.01;64.50
74794;BME280;63320;50.768;6.724;2023-03-01T03:17:23;101385.06;;;-1.19;64.95
74794;BME280;63320;50.768;6.724;2023-03-01T03:19:48;101385.22;;;-1.10;65.13
74794;BME280;63320;50.768;6.724;2023-03-01T03:22:15;101384.19;;;-1.19;64.31
74794;BME280;63320;50.768;6.724;2023-03-01T03:24:40;101381.81;;;-1.09;63.93
74794;BME280;63320;50.768;6.724;2023-03-01T03:27:06;101380.50;;;-1.32;64.46
74794;BME280;63320;50.768;6.724;2023-03-01T03:29:32;101374.41;;;-1.36;65.05
74794;BME280;63320;50.768;6.724;2023-03-01T03:31:58;101375.16;;;-1.41;65.57
74794;BME280;63320;50.768;6.724;2023-03-01T03:34:23;101378.47;;;-1.48;65.15
74794;BME280;63320;50.768;6.724;2023-03-01T03:36:52;101373.69;;;-1.30;64.89
74794;BME280;63320;50.768;6.724;2023-03-01T03:39:19;101368.63;;;-1.24;64.15
74794;BME280;63320;50.768;6.724;2023-03-01T03:41:44;101360.44;;;-1.47;65.29
74794;BME280;63320;50.768;6.724;2023-03-01T03:44:10;101354.84;;;-1.70;65.75
74794;BME280;63320;50.768;6.724;2023-03-01T03:46:35;101363.56;;;-1.63;66.50
74794;BME280;63320;50.768;6.724;2023-03-01T03:49:00;101363.88;;;-1.48;65.49
74794;BME280;63320;50.768;6.724;2023-03-01T03:51:26;101367.69;;;-1.27;64.62
74794;BME280;63320;50.768;6.724;2023-03-01T03:53:51;101360.53;;;-1.42;64.64
74794;BME280;63320;50.768;6.724;2023-03-01T03:56:18;101358.94;;;-1.36;64.71
74794;BME280;63320;50.768;6.724;2023-03-01T03:58:43;101358.09;;;-1.35;64.68
74794;BME280;63320;50.768;6.724;2023-03-01T04:01:08;101357.16;;;-1.82;65.35
74794;BME280;63320;50.768;6.724;2023-03-01T04:03:34;101354.34;;;-1.94;65.93
74794;BME280;63320;50.768;6.724;2023-03-01T04:06:00;101355.53;;;-1.77;66.24
74794;BME280;63320;50.768;6.724;2023-03-01T04:08:27;101355.34;;;-1.86;66.18
74794;BME280;63320;50.768;6.724;2023-03-01T04:10:57;101359.81;;;-1.79;66.42
74794;BME280;63320;50.768;6.724;2023-03-01T04:13:25;101353.97;;;-1.70;66.00
74794;BME280;63320;50.768;6.724;2023-03-01T04:15:51;101347.69;;;-1.83;66.54
74794;BME280;63320;50.768;6.724;2023-03-01T04:18:17;101337.94;;;-1.98;66.72
74794;BME280;63320;50.768;6.724;2023-03-01T04:20:43;101336.44;;;-1.88;66.77
74794;BME280;63320;50.768;6.724;2023-03-01T04:23:10;101332.97;;;-1.90;66.65
74794;BME280;63320;50.768;6.724;2023-03-01T04:25:37;101334.63;;;-1.92;67.39
74794;BME280;63320;50.768;6.724;2023-03-01T04:28:03;101337.16;;;-1.94;67.15
74794;BME280;63320;50.768;6.724;2023-03-01T04:30:30;101341.16;;;-2.08;67.23
74794;BME280;63320;50.768;6.724;2023-03-01T04:32:55;101342.03;;;-2.06;67.38
74794;BME280;63320;50.768;6.724;2023-03-01T04:35:20;101339.44;;;-2.08;67.79
74794;BME280;63320;50.768;6.724;2023-03-01T04:37:46;101327.75;;;-1.92;66.25
74794;BME280;63320;50.768;6.724;2023-03-01T04:40:11;101334.56;;;-1.95;66.97
74794;BME280;63320;50.768;6.724;2023-03-01T04:42:37;101341.47;;;-1.93;67.03
74794;BME280;63320;50.768;6.724;2023-03-01T04:45:03;101336.50;;;-1.85;66.93
74794;BME280;63320;50.768;6.724;2023-03-01T04:47:29;101338.56;;;-1.66;66.19
74794;BME280;63320;50.768;6.724;2023-03-01T04:49:55;101338.47;;;-1.72;66.32
74794;BME280;63320;50.768;6.724;2023-03-01T04:52:20;101335.97;;;-2.10;66.52
74794;BME280;63320;50.768;6.724;2023-03-01T04:54:45;101339.63;;;-2.00;66.43
74794;BME280;63320;50.768;6.724;2023-03-01T04:57:11;101341.03;;;-2.14;67.18
74794;BME280;63320;50.768;6.724;2023-03-01T04:59:36;101323.88;;;-2.14;67.27
74794;BME280;63320;50.768;6.724;2023-03-01T05:02:01;101331.03;;;-1.57;65.36
74794;BME280;63320;50.768;6.724;2023-03-01T05:04:28;101323.94;;;-2.11;66.15
74794;BME280;63320;50.768;6.724;2023-03-01T05:06:53;101318.78;;;-2.11;66.88
74794;BME280;63320;50.768;6.724;2023-03-01T05:09:19;101311.41;;;-2.35;67.18
74794;BME280;63320;50.768;6.724;2023-03-01T05:11:44;101317.84;;;-2.14;66.88
74794;BME280;63320;50.768;6.724;2023-03-01T05:14:10;101322.44;;;-1.99;66.19
74794;BME280;63320;50.768;6.724;2023-03-01T05:16:36;101322.84;;;-1.79;65.40
74794;BME280;63320;50.768;6.724;2023-03-01T05:19:02;101331.72;;;-2.08;66.16
74794;BME280;63320;50.768;6.724;2023-03-01T05:21:28;101337.09;;;-2.36;67.40
74794;BME280;63320;50.768;6.724;2023-03-01T05:23:54;101328.94;;;-2.17;67.13
74794;BME280;63320;50.768;6.724;2023-03-01T05:26:20;101332.16;;;-2.27;66.20
74794;BME280;63320;50.768;6.724;2023-03-01T05:28:45;101328.06;;;-2.17;66.66
74794;BME280;63320;50.768;6.724;2023-03-01T05:31:10;101333.88;;;-2.27;67.37
74794;BME280;63320;50.768;6.724;2023-03-01T05:33:36;101330.94;;;-2.03;67.08
74794;BME280;63320;50.768;6.724;2023-03-01T05:36:01;101313.88;;;-1.98;66.58
74794;BME280;63320;50.768;6.724;2023-03-01T05:38:28;101320.56;;;-2.06;66.93
74794;BME280;63320;50.768;6.724;2023-03-01T05:40:53;101323.31;;;-1.99;67.32
74794;BME280;63320;50.768;6.724;2023-03-01T05:43:19;101328.28;;;-2.08;67.59
74794;BME280;63320;50.768;6.724;2023-03-01T05:45:44;101329.22;;;-2.04;67.01
74794;BME280;63320;50.768;6.724;2023-03-01T05:48:10;101318.91;;;-2.04;66.90
74794;BME280;63320;50.768;6.724;2023-03-01T05:50:37;101330.28;;;-1.95;66.46
74794;BME280;63320;50.768;6.724;2023-03-01T05:53:05;101330.72;;;-2.14;67.27
74794;BME280;63320;50.768;6.724;2023-03-01T05:55:32;101326.13;;;-1.88;67.18
74794;BME280;63320;50.768;6.724;2023-03-01T05:57:58;101334.00;;;-1.80;66.96
74794;BME280;63320;50.768;6.724;2023-03-01T06:00:24;101329.56;;;-1.88;65.90
74794;BME280;63320;50.768;6.724;2023-03-01T06:02:50;101324.16;;;-2.00;66.73
74794;BME280;63320;50.768;6.724;2023-03-01T06:05:15;101330.31;;;-1.93;66.05
74794;BME280;63320;50.768;6.724;2023-03-01T06:07:41;101333.34;;;-2.11;65.80
74794;BME280;63320;50.768;6.724;2023-03-01T06:10:08;101330.50;;;-2.25;66.70
74794;BME280;63320;50.768;6.724;2023-03-01T06:12:36;101336.84;;;-2.09;65.97
74794;BME280;63320;50.768;6.724;2023-03-01T06:15:03;101323.41;;;-2.35;66.23
74794;BME280;63320;50.768;6.724;2023-03-01T06:17:30;101322.03;;;-2.19;65.50
74794;BME280;63320;50.768;6.724;2023-03-01T06:19:56;101318.59;;;-2.20;65.63
74794;BME280;63320;50.768;6.724;2023-03-01T06:22:21;101315.94;;;-2.23;65.84
74794;BME280;63320;50.768;6.724;2023-03-01T06:24:47;101319.25;;;-1.88;64.26
74794;BME280;63320;50.768;6.724;2023-03-01T06:27:12;101319.09;;;-1.51;63.64
74794;BME280;63320;50.768;6.724;2023-03-01T06:29:39;101321.91;;;-1.85;63.91
74794;BME280;63320;50.768;6.724;2023-03-01T06:32:04;101321.13;;;-2.21;64.72
74794;BME280;63320;50.768;6.724;2023-03-01T06:34:30;101324.91;;;-2.05;65.40
74794;BME280;63320;50.768;6.724;2023-03-01T06:36:56;101311.59;;;-1.85;63.50
74794;BME280;63320;50.768;6.724;2023-03-01T06:39:21;101323.31;;;-1.99;64.14
74794;BME280;63320;50.768;6.724;2023-03-01T06:41:47;101317.41;;;-1.95;64.68
74794;BME280;63320;50.768;6.724;2023-03-01T06:44:12;101312.00;;;-1.62;63.74
74794;BME280;63320;50.768;6.724;2023-03-01T06:46:40;101325.16;;;-1.93;64.05
74794;BME280;63320;50.768;6.724;2023-03-01T06:49:05;101317.53;;;-2.28;65.65
74794;BME280;63320;50.768;6.724;2023-03-01T06:51:30;101319.41;;;-1.80;64.47
74794;BME280;63320;50.768;6.724;2023-03-01T06:53:56;101308.22;;;-2.23;65.54
74794;BME280;63320;50.768;6.724;2023-03-01T06:56:21;101323.47;;;-1.91;65.43
74794;BME280;63320;50.768;6.724;2023-03-01T06:58:46;101321.72;;;-1.48;63.67
74794;BME280;63320;50.768;6.724;2023-03-01T07:01:12;101323.19;;;-1.63;63.87
74794;BME280;63320;50.768;6.724;2023-03-01T07:03:38;101322.81;;;-1.81;64.03
74794;BME280;63320;50.768;6.724;2023-03-01T07:06:04;101322.91;;;-1.76;64.64
74794;BME280;63320;50.768;6.724;2023-03-01T07:08:29;101322.03;;;-1.77;64.00
74794;BME280;63320;50.768;6.724;2023-03-01T07:10:55;101328.88;;;-1.34;63.33
74794;BME280;63320;50.768;6.724;2023-03-01T07:13:21;101324.06;;;-1.14;63.28
74794;BME280;63320;50.768;6.724;2023-03-01T07:15:47;101323.91;;;-1.24;63.52
74794;BME280;63320;50.768;6.724;2023-03-01T07:18:12;101328.41;;;-1.11;63.28
74794;BME280;63320;50.768;6.724;2023-03-01T07:20:39;101323.97;;;-1.20;63.04
74794;BME280;63320;50.768;6.724;2023-03-01T07:23:05;101330.34;;;-1.46;65.00
74794;BME280;63320;50.768;6.724;2023-03-01T07:25:31;101319.16;;;-1.47;65.49
74794;BME280;63320;50.768;6.724;2023-03-01T07:27:56;101327.78;;;-0.96;64.05
74794;BME280;63320;50.768;6.724;2023-03-01T07:30:22;101315.63;;;-1.53;65.56
74794;BME280;63320;50.768;6.724;2023-03-01T07:32:47;101305.97;;;-1.64;66.58
74794;BME280;63320;50.768;6.724;2023-03-01T07:35:13;101309.97;;;-1.34;66.00
74794;BME280;63320;50.768;6.724;2023-03-01T07:37:40;101306.59;;;-1.30;66.10
74794;BME280;63320;50.768;6.724;2023-03-01T07:40:06;101306.84;;;-1.63;67.34
74794;BME280;63320;50.768;6.724;2023-03-01T07:42:33;101308.91;;;-1.44;67.44
74794;BME280;63320;50.768;6.724;2023-03-01T07:44:58;101302.06;;;-1.42;67.35
74794;BME280;63320;50.768;6.724;2023-03-01T07:47:24;101311.53;;;-1.41;67.20
74794;BME280;63320;50.768;6.724;2023-03-01T07:49:49;101307.94;;;-1.50;67.70
74794;BME280;63320;50.768;6.724;2023-03-01T07:52:14;101304.38;;;-1.57;68.56
74794;BME280;63320;50.768;6.724;2023-03-01T07:54:42;101309.28;;;-1.24;67.85
74794;BME280;63320;50.768;6.724;2023-03-01T07:57:08;101302.03;;;-0.93;66.91
74794;BME280;63320;50.768;6.724;2023-03-01T07:59:33;101306.53;;;-0.82;65.75
74794;BME280;63320;50.768;6.724;2023-03-01T08:01:59;101296.41;;;-0.68;66.14
74794;BME280;63320;50.768;6.724;2023-03-01T08:04:24;101304.78;;;-0.83;66.94
74794;BME280;63320;50.768;6.724;2023-03-01T08:06:49;101302.28;;;-0.80;67.55
74794;BME280;63320;50.768;6.724;2023-03-01T08:09:15;101299.44;;;-0.37;65.75
74794;BME280;63320;50.768;6.724;2023-03-01T08:11:41;101298.34;;;-0.55;66.47
74794;BME280;63320;50.768;6.724;2023-03-01T08:14:07;101291.50;;;-1.06;68.46
74794;BME280;63320;50.768;6.724;2023-03-01T08:16:33;101296.00;;;-0.95;68.13
74794;BME280;63320;50.768;6.724;2023-03-01T08:19:03;101297.03;;;-0.84;68.44
74794;BME280;63320;50.768;6.724;2023-03-01T08:21:29;101294.59;;;-0.75;67.99
74794;BME280;63320;50.768;6.724;2023-03-01T08:23:54;101298.91;;;-0.74;68.06
74794;BME280;63320;50.768;6.724;2023-03-01T08:26:20;101299.00;;;-0.66;67.63
74794;BME280;63320;50.768;6.724;2023-03-01T08:28:49;101297.44;;;-0.57;67.17
74794;BME280;63320;50.768;6.724;2023-03-01T08:31:17;101293.25;;;-0.48;67.00
74794;BME280;63320;50.768;6.724;2023-03-01T08:33:43;101299.38;;;-0.40;66.97
74794;BME280;63320;50.768;6.724;2023-03-01T08:36:08;101302.13;;;-0.30;66.61
74794;BME280;63320;50.768;6.724;2023-03-01T08:38:34;101294.13;;;-0.46;67.07
74794;BME280;63320;50.768;6.724;2023-03-01T08:41:00;101301.38;;;-0.21;66.06
74794;BME280;63320;50.768;6.724;2023-03-01T08:43:25;101288.88;;;0.13;65.49
74794;BME280;63320;50.768;6.724;2023-03-01T08:45:52;101294.78;;;0.03;65.89
74794;BME280;63320;50.768;6.724;2023-03-01T08:48:17;101297.94;;;-1.34;70.24
74794;BME280;63320;50.768;6.724;2023-03-01T08:50:43;101304.78;;;-0.83;71.41
74794;BME280;63320;50.768;6.724;2023-03-01T08:53:08;101296.81;;;-0.96;70.73
74794;BME280;63320;50.768;6.724;2023-03-01T08:55:33;101300.16;;;-1.03;71.49
74794;BME280;63320;50.768;6.724;2023-03-01T08:57:59;101306.53;;;-0.82;70.96
74794;BME280;63320;50.768;6.724;2023-03-01T09:00:24;101309.97;;;-0.81;70.52
74794;BME280;63320;50.768;6.724;2023-03-01T09:02:51;101303.28;;;-0.70;70.27
74794;BME280;63320;50.768;6.724;2023-03-01T09:05:16;101301.72;;;-0.59;69.85
74794;BME280;63320;50.768;6.724;2023-03-01T09:07:41;101298.44;;;-0.45;69.54
74794;BME280;63320;50.768;6.724;2023-03-01T09:10:08;101297.78;;;-0.34;69.21
74794;BME280;63320;50.768;6.724;2023-03-01T09:12:34;101295.22;;;-0.31;69.10
74794;BME280;63320;50.768;6.724;2023-03-01T09:14:59;101296.38;;;-0.07;67.36
74794;BME280;63320;50.768;6.724;2023-03-01T09:17:25;101289.38;;;-0.16;65.36
74794;BME280;63320;50.768;6.724;2023-03-01T09:19:51;101288.81;;;0.10;65.22
74794;BME280;63320;50.768;6.724;2023-03-01T09:22:17;101290.00;;;0.36;64.72
74794;BME280;63320;50.768;6.724;2023-03-01T09:24:42;101286.56;;;0.36;64.48
74794;BME280;63320;50.768;6.724;2023-03-01T09:27:07;101281.53;;;0.51;64.42
74794;BME280;63320;50.768;6.724;2023-03-01T09:29:32;101278.00;;;0.41;64.83
74794;BME280;63320;50.768;6.724;2023-03-01T09:31:58;101272.00;;;0.48;65.04
74794;BME280;63320;50.768;6.724;2023-03-01T09:34:23;101279.75;;;0.45;64.84
74794;BME280;63320;50.768;6.724;2023-03-01T09:36:50;101274.72;;;0.61;64.04
74794;BME280;63320;50.768;6.724;2023-03-01T09:39:15;101263.56;;;0.68;63.91
74794;BME280;63320;50.768;6.724;2023-03-01T09:41:47;101270.47;;;0.66;64.07
74794;BME280;63320;50.768;6.724;2023-03-01T09:44:29;101266.19;;;0.72;63.10
74794;BME280;63320;50.768;6.724;2023-03-01T09:46:57;101260.94;;;0.65;63.21
74794;BME280;63320;50.768;6.724;2023-03-01T09:49:25;101262.09;;;0.97;62.83
74794;BME280;63320;50.768;6.724;2023-03-01T09:51:59;101259.25;;;0.67;63.49
74794;BME280;63320;50.768;6.724;2023-03-01T09:54:24;101264.53;;;0.76;63.22
74794;BME280;63320;50.768;6.724;2023-03-01T09:57:00;101262.88;;;0.87;63.11
74794;BME280;63320;50.768;6.724;2023-03-01T09:59:31;101254.34;;;0.99;63.15
74794;BME280;63320;50.768;6.724;2023-03-01T10:02:01;101258.59;;;0.95;62.43
74794;BME280;63320;50.768;6.724;2023-03-01T10:04:41;101250.88;;;0.97;62.78
74794;BME280;63320;50.768;6.724;2023-03-01T10:07:21;101244.78;;;0.93;63.35
74794;BME280;63320;50.768;6.724;2023-03-01T10:09:49;101249.72;;;0.61;63.38
74794;BME280;63320;50.768;6.724;2023-03-01T10:12:18;101250.00;;;0.96;63.57
74794;BME280;63320;50.768;6.724;2023-03-01T10:14:51;101238.94;;;1.16;62.84
74794;BME280;63320;50.768;6.724;2023-03-01T10:17:25;101237.00;;;0.90;63.65
74794;BME280;63320;50.768;6.724;2023-03-01T10:19:52;101235.44;;;1.14;63.14
74794;BME280;63320;50.768;6.724;2023-03-01T10:22:21;101232.88;;;1.18;63.12
74794;BME280;63320;50.768;6.724;2023-03-01T10:24:48;101235.56;;;1.32;63.73
74794;BME280;63320;50.768;6.724;2023-03-01T10:27:17;101229.56;;;1.39;63.13
74794;BME280;63320;50.768;6.724;2023-03-01T10:29:46;101232.19;;;1.50;62.86
74794;BME280;63320;50.768;6.724;2023-03-01T10:32:14;101229.59;;;1.45;62.58
74794;BME280;63320;50.768;6.724;2023-03-01T10:34:39;101227.06;;;1.58;62.82
74794;BME280;63320;50.768;6.724;2023-03-01T10:37:10;101218.47;;;1.69;62.39
74794;BME280;63320;50.768;6.724;2023-03-01T10:39:54;101213.28;;;1.69;61.76
74794;BME280;63320;50.768;6.724;2023-03-01T10:42:30;101212.47;;;1.76;61.61
74794;BME280;63320;50.768;6.724;2023-03-01T10:44:58;101214.22;;;1.82;61.78
74794;BME280;63320;50.768;6.724;2023-03-01T10:47:25;101215.06;;;1.86;62.08
74794;BME280;63320;50.768;6.724;2023-03-01T10:49:57;101216.81;;;1.88;60.73
74794;BME280;63320;50.768;6.724;2023-03-01T10:52:25;101219.47;;;2.10;59.91
74794;BME280;63320;50.768;6.724;2023-03-01T10:54:54;101212.56;;;2.08;59.58
74794;BME280;63320;50.768;6.724;2023-03-01T10:57:37;101200.50;;;2.21;58.40
74794;BME280;63320;50.768;6.724;2023-03-01T11:00:19;101209.16;;;2.31;58.05
74794;BME280;63320;50.768;6.724;2023-03-01T11:02:48;101204.84;;;2.36;58.19
74794;BME280;63320;50.768;6.724;2023-03-01T11:05:18;101190.13;;;2.33;58.48
74794;BME280;63320;50.768;6.724;2023-03-01T11:07:47;101186.66;;;2.31;58.22
74794;BME280;63320;50.768;6.724;2023-03-01T11:10:17;101177.13;;;2.29;57.93
74794;BME280;63320;50.768;6.724;2023-03-01T11:12:43;101179.72;;;2.30;57.69
74794;BME280;63320;50.768;6.724;2023-03-01T11:15:21;101167.63;;;2.40;57.49
74794;BME280;63320;50.768;6.724;2023-03-01T11:17:47;101165.88;;;2.41;57.66
74794;BME280;63320;50.768;6.724;2023-03-01T11:20:20;101168.50;;;2.36;57.53
74794;BME280;63320;50.768;6.724;2023-03-01T11:22:51;101160.72;;;2.47;57.65
74794;BME280;63320;50.768;6.724;2023-03-01T11:25:23;101150.31;;;2.54;56.74
74794;BME280;63320;50.768;6.724;2023-03-01T11:27:49;101147.72;;;2.59;56.64
74794;BME280;63320;50.768;6.724;2023-03-01T11:30:18;101141.66;;;2.60;56.83
74794;BME280;63320;50.768;6.724;2023-03-01T11:32:46;101135.59;;;2.59;57.02
74794;BME280;63320;50.768;6.724;2023-03-01T11:35:16;101126.97;;;2.57;56.89
74794;BME280;63320;50.768;6.724;2023-03-01T11:37:54;101118.28;;;2.77;56.52
74794;BME280;63320;50.768;6.724;2023-03-01T11:40:27;101113.97;;;2.71;56.56
74794;BME280;63320;50.768;6.724;2023-03-01T11:43:02;101111.38;;;2.73;56.11
74794;BME280;63320;50.768;6.724;2023-03-01T11:45:36;101109.59;;;2.81;56.92
74794;BME280;63320;50.768;6.724;2023-03-01T11:48:23;101114.78;;;2.85;56.25
74794;BME280;63320;50.768;6.724;2023-03-01T11:50:52;101108.72;;;2.93;56.08
74794;BME280;63320;50.768;6.724;2023-03-01T11:53:41;101101.78;;;2.90;56.30
74794;BME280;63320;50.768;6.724;2023-03-01T11:56:19;101111.31;;;2.91;55.64
74794;BME280;63320;50.768;6.724;2023-03-01T12:02:02;101099.97;;;3.23;54.95
74794;BME280;63320;50.768;6.724;2023-03-01T12:04:53;101095.63;;;3.26;54.34
74794;BME280;63320;50.768;6.724;2023-03-01T12:07:27;101090.38;;;3.31;53.48
74794;BME280;63320;50.768;6.724;2023-03-01T12:10:12;101090.41;;;3.29;53.39
74794;BME280;63320;50.768;6.724;2023-03-01T12:12:55;101089.53;;;3.36;52.80
74794;BME280;63320;50.768;6.724;2023-03-01T12:15:33;101071.31;;;3.38;53.11
74794;BME280;63320;50.768;6.724;2023-03-01T12:18:12;101058.34;;;3.36;53.78
74794;BME280;63320;50.768;6.724;2023-03-01T12:20:48;101056.47;;;3.54;52.38
74794;BME280;63320;50.768;6.724;2023-03-01T12:23:27;101066.88;;;3.51;53.89
74794;BME280;63320;50.768;6.724;2023-03-01T12:26:02;101069.47;;;3.57;53.45
74794;BME280;63320;50.768;6.724;2023-03-01T12:28:45;101072.03;;;3.60;53.39
74794;BME280;63320;50.768;6.724;2023-03-01T12:31:32;101071.13;;;3.69;53.59
74794;BME280;63320;50.768;6.724;2023-03-01T12:34:11;101065.81;;;3.87;51.78
74794;BME280;63320;50.768;6.724;2023-03-01T12:36:51;101053.69;;;3.81;52.03
74794;BME280;63320;50.768;6.724;2023-03-01T12:39:31;101044.91;;;3.96;51.95
74794;BME280;63320;50.768;6.724;2023-03-01T12:42:05;101044.06;;;3.96;50.60
74794;BME280;63320;50.768;6.724;2023-03-01T12:44:44;101043.88;;;4.15;50.35
74794;BME280;63320;50.768;6.724;2023-03-01T12:47:23;101055.09;;;4.24;50.28
74794;BME280;63320;50.768;6.724;2023-03-01T12:49:55;101067.09;;;4.40;49.50
74794;BME280;63320;50.768;6.724;2023-03-01T12:52:24;101064.44;;;4.46;49.76
74794;BME280;63320;50.768;6.724;2023-03-01T12:54:53;101056.47;;;4.61;49.09
74794;BME280;63320;50.768;6.724;2023-03-01T12:57:26;101059.69;;;4.88;48.24
74794;BME280;63320;50.768;6.724;2023-03-01T13:00:02;101052.44;;;5.11;47.63
74794;BME280;63320;50.768;6.724;2023-03-01T13:02:34;101045.38;;;5.19;47.06